ZMUB/ULN METAR and TAF weather

Enter ICAO airport designator
Station Type Date Time Source
ZMUB METAR 2019/06/18 05:00 UTC NOAA

ZMUB 180500Z 20002G07MPS 9999 FEW030TCU FEW033 23/09 Q1015 NOSIG RMK QFE653.7 42 MOP


Station Type Date Time Source
ZMUB Decoded METAR 2019/06/18 05:00 UTC NOAA

Ulan-Bator, Mongolia (ZMUB) 47-51N 106-46E
Jun 18, 2019 - 01:00 AM EDT / 2019.06.18 0500 UTC
Wind: from the SSW (200 degrees) at 4 MPH (4 KT) gusting to 16 MPH (14 KT):0
Visibility: greater than 7 mile(s):0
Sky conditions: mostly clear
Weather: Towering cumulus clouds observed
Temperature: 73 F (23 C)
Dew Point: 48 F (9 C)
Relative Humidity: 40%
Pressure (altimeter): 29.97 in. Hg (1015 hPa)
ob: ZMUB 180500Z 20002G07MPS 9999 FEW030TCU FEW033 23/09 Q1015 NOSIG RMK QFE653.7 42 MOP
cycle: 5

Station Type Date Time Source
ZMUB TAF 2019/06/18 06:48 UTC NOAA

TAF TAF ZMUB 180440Z 1806/1912 VRB02MPS 9999 FEW030CB SCT033 TX24/1807Z TN10/1822Z PROB40
TEMPO 1807/1814 VRB08G13MPS TS SHRA SCT030CB SCT033

Example: see airport list